Time;durP1;ratioP1;P1;durP2;ratioP2;P2;SDS_P1;SDS_P2;PMS_P1;PMS_P2;Temp;Humidity;BMP_temperature;BMP_pressure;BME280_temperature;BME280_humidity;BME280_pressure;Samples;Min_cycle;Max_cycle;Signal;HPM_P1;HPM_P2
2022/09/22 00:00:32;;;;;;;11.77;6.75;;;;;;;-142.57;100.00;68379.81;5045180;28;20029;-79
2022/09/22 00:02:58;;;;;;;11.15;7.07;;;;;;;-142.57;100.00;68379.81;5041607;28;20021;-79
2022/09/22 00:05:24;;;;;;;9.65;7.18;;;;;;;-142.57;100.00;68379.81;5053363;28;20498;-77
2022/09/22 00:07:52;;;;;;;14.38;7.35;;;;;;;-142.57;100.00;68379.81;5053762;28;20044;-79
2022/09/22 00:10:20;;;;;;;12.50;7.35;;;;;;;-142.57;100.00;68379.81;5054250;28;20065;-80
2022/09/22 00:12:49;;;;;;;10.48;7.15;;;;;;;-142.57;100.00;68379.81;5054758;28;20036;-80
2022/09/22 00:15:16;;;;;;;11.48;7.55;;;;;;;-142.57;100.00;68379.81;5043483;28;20044;-79
2022/09/22 00:17:41;;;;;;;13.52;7.50;;;;;;;-142.57;100.00;68379.81;5047003;28;20037;-79
2022/09/22 00:20:07;;;;;;;9.43;7.05;;;;;;;-142.57;100.00;68379.81;5053774;28;20036;-80
2022/09/22 00:22:32;;;;;;;14.52;8.43;;;;;;;-142.57;100.00;68379.81;5052264;28;20155;-81
2022/09/22 00:24:58;;;;;;;9.32;7.32;;;;;;;-142.57;100.00;68379.81;5052675;28;20056;-81
2022/09/22 00:27:24;;;;;;;12.80;8.65;;;;;;;-142.57;100.00;68379.81;5052871;28;20471;-79
2022/09/22 00:29:50;;;;;;;13.02;7.93;;;;;;;-142.57;100.00;68379.81;5067463;28;20059;-79
2022/09/22 00:32:17;;;;;;;9.95;7.50;;;;;;;-142.57;100.00;68379.81;5047857;28;20033;-78
2022/09/22 00:34:42;;;;;;;9.27;6.53;;;;;;;-142.57;100.00;68379.81;5063072;28;20025;-79
2022/09/22 00:37:08;;;;;;;9.80;6.72;;;;;;;-142.57;100.00;68379.81;5046345;28;20495;-79
2022/09/22 00:39:34;;;;;;;8.38;6.95;;;;;;;-142.57;100.00;68379.81;5061791;28;20709;-80
2022/09/22 00:41:59;;;;;;;12.50;7.65;;;;;;;-142.57;100.00;68379.81;5051136;28;20025;-79
2022/09/22 00:44:37;;;;;;;13.98;8.45;;;;;;;-142.57;100.00;68379.81;5053017;28;20029;-79
2022/09/22 00:47:35;;;;;;;10.07;6.75;;;;;;;-142.57;100.00;68379.81;5058612;28;20025;-78
2022/09/22 00:50:21;;;;;;;10.52;6.85;;;;;;;-142.57;100.00;68379.81;5044048;28;20067;-78
2022/09/22 00:52:49;;;;;;;9.65;7.95;;;;;;;-142.57;100.00;68379.81;5049430;28;20033;-79
2022/09/22 00:55:19;;;;;;;11.57;7.78;;;;;;;-142.57;100.00;68379.81;5034200;28;20391;-77
2022/09/22 00:57:45;;;;;;;9.07;6.45;;;;;;;-142.57;100.00;68379.81;5062481;28;20441;-77
2022/09/22 01:00:11;;;;;;;10.48;7.82;;;;;;;-142.57;100.00;68379.81;5050987;28;20032;-77
2022/09/22 01:02:37;;;;;;;11.68;8.73;;;;;;;-142.57;100.00;68379.81;5015558;28;20068;-77
2022/09/22 01:05:03;;;;;;;11.77;9.05;;;;;;;-142.57;100.00;68379.81;5041304;28;20063;-78
2022/09/22 01:07:30;;;;;;;14.70;9.25;;;;;;;-142.57;100.00;68379.81;5047617;28;20037;-77
2022/09/22 01:09:56;;;;;;;18.45;9.23;;;;;;;-142.57;100.00;68379.81;5061677;28;20083;-77
2022/09/22 01:12:23;;;;;;;13.35;8.80;;;;;;;-142.57;100.00;68379.81;5047447;28;20021;-78
2022/09/22 01:15:10;;;;;;;15.77;9.98;;;;;;;-142.57;100.00;68379.81;5051062;28;20029;-77
2022/09/22 01:17:54;;;;;;;11.38;8.40;;;;;;;-142.57;100.00;68379.81;5049615;28;20108;-77
2022/09/22 01:20:29;;;;;;;13.30;9.70;;;;;;;-142.57;100.00;68379.81;5051488;28;20468;-77
2022/09/22 01:23:00;;;;;;;;;;;;;;;-142.57;100.00;68379.81;5040481;28;20025;-76
2022/09/22 01:25:53;;;;;;;14.60;8.77;;;;;;;-142.57;100.00;68379.81;5045246;28;19921;-77
2022/09/22 01:28:43;;;;;;;17.08;9.18;;;;;;;-142.57;100.00;68379.81;5033717;28;20434;-77
2022/09/22 01:31:34;;;;;;;12.23;8.98;;;;;;;-142.57;100.00;68379.81;5045939;28;20033;-77
2022/09/22 01:34:10;;;;;;;14.52;9.65;;;;;;;-142.57;100.00;68379.81;5071004;28;20063;-77
2022/09/22 01:36:58;;;;;;;12.70;9.45;;;;;;;-142.57;100.00;68379.81;5051044;28;20033;-79
2022/09/22 01:39:30;;;;;;;12.40;9.98;;;;;;;-142.57;100.00;68379.81;5034422;28;20506;-79
2022/09/22 01:42:04;;;;;;;12.05;9.48;;;;;;;-142.57;100.00;68379.81;5047563;28;20095;-79
2022/09/22 01:44:36;;;;;;;18.27;10.52;;;;;;;-142.57;100.00;68379.81;5032985;28;20037;-79
2022/09/22 01:47:13;;;;;;;14.40;9.40;;;;;;;-142.57;100.00;68379.81;5052143;28;20037;-79
2022/09/22 01:49:46;;;;;;;12.77;10.50;;;;;;;-142.57;100.00;68379.81;5052127;28;20233;-78
2022/09/22 01:52:15;;;;;;;12.50;10.05;;;;;;;-142.57;100.00;68379.81;5064004;28;20474;-79
2022/09/22 01:54:44;;;;;;;10.23;8.65;;;;;;;-142.57;100.00;68379.81;5025401;28;20037;-79
2022/09/22 01:57:15;;;;;;;13.48;10.45;;;;;;;-142.57;100.00;68379.81;5050924;28;20037;-80
2022/09/22 01:59:42;;;;;;;21.15;10.43;;;;;;;-142.57;100.00;68379.81;5050974;28;20468;-78
2022/09/22 02:02:26;;;;;;;16.58;11.60;;;;;;;-142.57;100.00;68379.81;5084055;28;20029;-78
2022/09/22 02:04:57;;;;;;;15.15;11.27;;;;;;;-142.57;100.00;68379.81;5060225;28;20035;-78
2022/09/22 02:07:29;;;;;;;17.20;12.05;;;;;;;-142.57;100.00;68379.81;5051577;28;20024;-78
2022/09/22 02:09:57;;;;;;;22.67;12.60;;;;;;;-142.57;100.00;68379.81;5060018;28;20036;-79
2022/09/22 02:12:22;;;;;;;15.73;12.02;;;;;;;-142.57;100.00;68379.81;5034155;28;20021;-80
2022/09/22 02:14:48;;;;;;;15.88;12.02;;;;;;;-142.57;100.00;68379.81;5050580;28;20352;-80
2022/09/22 02:17:14;;;;;;;16.80;12.15;;;;;;;-142.57;100.00;68379.81;5036763;28;20538;-80
2022/09/22 02:19:40;;;;;;;15.55;12.68;;;;;;;-142.57;100.00;68379.81;5047671;28;20146;-80
2022/09/22 02:22:07;;;;;;;20.75;14.45;;;;;;;-142.57;100.00;68379.81;5051171;28;20079;-80
2022/09/22 02:24:42;;;;;;;17.42;12.77;;;;;;;-142.57;100.00;68379.81;5050590;28;20052;-80
2022/09/22 02:27:12;;;;;;;16.40;12.52;;;;;;;-142.57;100.00;68379.81;5047867;28;20031;-80
2022/09/22 02:29:45;;;;;;;18.83;12.70;;;;;;;-142.57;100.00;68379.81;5054137;28;20395;-79
2022/09/22 02:32:14;;;;;;;20.50;13.25;;;;;;;-142.57;100.00;68379.81;5050745;28;20036;-79
2022/09/22 02:34:40;;;;;;;25.48;13.38;;;;;;;-142.57;100.00;68379.81;5031030;28;20033;-80
2022/09/22 02:37:29;;;;;;;16.63;12.43;;;;;;;-142.57;100.00;68379.81;5067340;28;20021;-78
2022/09/22 02:40:05;;;;;;;16.45;12.45;;;;;;;-142.57;100.00;68379.81;5040839;28;20124;-79
2022/09/22 02:42:46;;;;;;;20.42;12.00;;;;;;;-142.57;100.00;68379.81;5034918;28;20451;-80
2022/09/22 02:45:12;;;;;;;19.15;13.73;;;;;;;-142.57;100.00;68379.81;5051272;28;20092;-81
2022/09/22 02:47:44;;;;;;;19.23;13.85;;;;;;;-142.57;100.00;68379.81;5055323;28;20043;-81
2022/09/22 02:50:12;;;;;;;17.35;12.40;;;;;;;-142.57;100.00;68379.81;5055629;28;20098;-80
2022/09/22 02:52:38;;;;;;;17.65;13.27;;;;;;;-142.57;100.00;68379.81;5054020;28;20563;-80
2022/09/22 02:55:05;;;;;;;16.55;12.50;;;;;;;-142.57;100.00;68379.81;5040661;28;20476;-78
2022/09/22 02:57:30;;;;;;;16.45;11.93;;;;;;;-142.57;100.00;68379.81;5040480;28;20017;-78
2022/09/22 02:59:55;;;;;;;16.13;13.25;;;;;;;-142.57;100.00;68379.81;5053502;28;20392;-78
2022/09/22 03:02:21;;;;;;;17.08;12.73;;;;;;;-142.57;100.00;68379.81;5080996;28;20030;-79
2022/09/22 03:04:46;;;;;;;18.10;14.13;;;;;;;-142.57;100.00;68379.81;5047653;28;20062;-78
2022/09/22 03:07:11;;;;;;;23.77;16.08;;;;;;;-142.57;100.00;68379.81;5053959;28;20024;-78
2022/09/22 03:09:37;;;;;;;16.63;14.43;;;;;;;-142.57;100.00;68379.81;5055816;28;20479;-78
2022/09/22 03:12:03;;;;;;;19.77;15.07;;;;;;;-142.57;100.00;68379.81;5053709;28;20036;-77
2022/09/22 03:14:28;;;;;;;19.95;15.05;;;;;;;-142.57;100.00;68379.81;5036642;28;20029;-77
2022/09/22 03:16:53;;;;;;;21.58;15.02;;;;;;;-142.57;100.00;68379.81;5017771;28;20041;-78
2022/09/22 03:19:19;;;;;;;18.45;14.85;;;;;;;-142.57;100.00;68379.81;5014571;28;20793;-78
2022/09/22 03:21:44;;;;;;;18.88;16.05;;;;;;;-142.57;100.00;68379.81;4995815;28;20094;-78
2022/09/22 03:24:09;;;;;;;20.02;15.35;;;;;;;-142.57;100.00;68379.81;5014171;28;20048;-77
2022/09/22 03:26:35;;;;;;;20.38;16.13;;;;;;;-142.57;100.00;68379.81;5020576;28;20533;-78
2022/09/22 03:29:00;;;;;;;19.38;15.30;;;;;;;-142.57;100.00;68379.81;5054962;28;20063;-78
2022/09/22 03:31:26;;;;;;;25.95;16.25;;;;;;;-142.57;100.00;68379.81;5032969;28;20084;-77
2022/09/22 03:33:51;;;;;;;19.67;14.98;;;;;;;-142.57;100.00;68379.81;5053639;28;20025;-78
2022/09/22 03:36:17;;;;;;;17.02;14.15;;;;;;;-142.57;100.00;68379.81;5086398;28;20492;-76
2022/09/22 03:38:43;;;;;;;20.23;15.77;;;;;;;-142.57;100.00;68379.81;5016901;28;20028;-77
2022/09/22 03:41:08;;;;;;;18.15;14.18;;;;;;;-142.57;100.00;68379.81;5086707;28;20111;-77
2022/09/22 03:43:33;;;;;;;18.88;14.02;;;;;;;-142.57;100.00;68379.81;5051153;28;20139;-78
2022/09/22 03:46:00;;;;;;;23.05;14.07;;;;;;;-142.57;100.00;68379.81;5014338;28;20874;-79
2022/09/22 03:48:27;;;;;;;19.33;13.73;;;;;;;-142.57;100.00;68379.81;5017848;28;20083;-80
2022/09/22 03:50:53;;;;;;;14.77;13.23;;;;;;;-142.57;100.00;68379.81;5006074;28;20889;-77
2022/09/22 03:53:19;;;;;;;17.17;14.05;;;;;;;-142.57;100.00;68379.81;5052367;28;20086;-76
2022/09/22 03:55:44;;;;;;;23.38;13.60;;;;;;;-142.57;100.00;68379.81;5053223;28;20411;-76
2022/09/22 03:58:09;;;;;;;21.15;13.00;;;;;;;-142.57;100.00;68379.81;5059655;28;20029;-76
2022/09/22 04:00:35;;;;;;;17.52;13.85;;;;;;;-142.57;100.00;68379.81;5049317;28;20029;-76
2022/09/22 04:03:00;;;;;;;15.63;12.65;;;;;;;-142.57;100.00;68379.81;5051016;28;20064;-76
2022/09/22 04:05:25;;;;;;;15.38;12.70;;;;;;;-142.57;100.00;68379.81;5052249;28;20017;-76
2022/09/22 04:07:51;;;;;;;17.38;11.93;;;;;;;-142.57;100.00;68379.81;5053116;28;20033;-76
2022/09/22 04:10:17;;;;;;;13.75;12.23;;;;;;;-142.57;100.00;68379.81;5086119;28;20041;-76
2022/09/22 04:12:42;;;;;;;14.95;13.35;;;;;;;-142.57;100.00;68379.81;5086682;28;20490;-78
2022/09/22 04:15:08;;;;;;;18.42;14.15;;;;;;;-142.57;100.00;68379.81;5052888;28;20017;-79
2022/09/22 04:17:35;;;;;;;22.85;13.35;;;;;;;-142.57;100.00;68379.81;5072123;28;20119;-78
2022/09/22 04:20:02;;;;;;;20.73;16.00;;;;;;;-142.57;100.00;68379.81;5040058;28;20032;-78
2022/09/22 04:22:27;;;;;;;22.25;14.18;;;;;;;-142.57;100.00;68379.81;5053582;28;20039;-78
2022/09/22 04:24:53;;;;;;;18.17;14.32;;;;;;;-142.57;100.00;68379.81;5050471;28;20100;-75
2022/09/22 04:27:18;;;;;;;19.80;14.10;;;;;;;-142.57;100.00;68379.81;5053711;28;20036;-77
2022/09/22 04:29:43;;;;;;;16.50;13.35;;;;;;;-142.57;100.00;68379.81;5052332;28;20078;-78
2022/09/22 04:32:09;;;;;;;15.95;14.30;;;;;;;-142.57;100.00;68379.81;5050273;28;20029;-78
2022/09/22 04:34:34;;;;;;;16.38;13.38;;;;;;;-142.57;100.00;68379.81;5052149;28;20036;-78
2022/09/22 04:37:00;;;;;;;16.95;12.98;;;;;;;-142.57;100.00;68379.81;5053225;28;20047;-76
2022/09/22 04:39:27;;;;;;;18.75;14.82;;;;;;;-142.57;100.00;68379.81;5052526;28;20104;-76
2022/09/22 04:41:53;;;;;;;16.52;13.60;;;;;;;-142.57;100.00;68379.81;5054163;28;20444;-77
2022/09/22 04:44:18;;;;;;;19.98;13.85;;;;;;;-142.57;100.00;68379.81;5054639;28;20035;-79
2022/09/22 04:46:44;;;;;;;15.38;13.15;;;;;;;-142.57;100.00;68379.81;5051667;28;20120;-79
2022/09/22 04:49:11;;;;;;;18.80;14.27;;;;;;;-142.57;100.00;68379.81;5083562;28;20036;-76
2022/09/22 04:51:37;;;;;;;18.00;12.98;;;;;;;-142.57;100.00;68379.81;5053334;28;20017;-76
2022/09/22 04:54:02;;;;;;;16.00;14.02;;;;;;;-142.57;100.00;68379.81;5085366;28;20044;-78
2022/09/22 04:56:27;;;;;;;19.70;13.60;;;;;;;-142.57;100.00;68379.81;5053039;28;20082;-78
2022/09/22 04:58:53;;;;;;;18.85;13.35;;;;;;;-142.57;100.00;68379.81;5051609;28;20025;-78
2022/09/22 05:01:18;;;;;;;18.45;13.52;;;;;;;-142.57;100.00;68379.81;5051377;28;20049;-79
2022/09/22 05:03:43;;;;;;;17.40;13.02;;;;;;;-142.57;100.00;68379.81;5051007;28;20036;-78
2022/09/22 05:06:09;;;;;;;15.45;13.35;;;;;;;-142.57;100.00;68379.81;5051377;28;20492;-76
2022/09/22 05:08:34;;;;;;;14.43;11.88;;;;;;;-142.57;100.00;68379.81;5052232;28;20036;-75
2022/09/22 05:11:00;;;;;;;19.90;11.88;;;;;;;-142.57;100.00;68379.81;5053068;28;20532;-80
2022/09/22 05:13:25;;;;;;;15.52;12.30;;;;;;;-142.57;100.00;68379.81;5052939;28;20154;-74
2022/09/22 05:15:51;;;;;;;13.93;11.18;;;;;;;-142.57;100.00;68379.81;5052201;28;20399;-78
2022/09/22 05:18:17;;;;;;;16.70;12.02;;;;;;;-142.57;100.00;68379.81;5062372;28;20877;-78
2022/09/22 05:20:43;;;;;;;22.17;12.30;;;;;;;-142.57;100.00;68379.81;5039826;28;20064;-76
2022/09/22 05:23:08;;;;;;;15.13;13.00;;;;;;;-142.57;100.00;68379.81;5054064;28;20025;-76
2022/09/22 05:25:34;;;;;;;14.88;11.48;;;;;;;-142.57;100.00;68379.81;5060638;28;20020;-76
2022/09/22 05:27:59;;;;;;;16.73;11.90;;;;;;;-142.57;100.00;68379.81;5054120;28;20537;-76
2022/09/22 05:30:26;;;;;;;14.40;12.70;;;;;;;-142.57;100.00;68379.81;5055720;28;20035;-76
2022/09/22 05:32:51;;;;;;;14.60;11.80;;;;;;;-142.57;100.00;68379.81;5066873;28;20032;-79
2022/09/22 05:35:21;;;;;;;14.88;12.25;;;;;;;-142.57;100.00;68379.81;5050208;28;20486;-77
2022/09/22 05:37:49;;;;;;;13.05;10.90;;;;;;;-142.57;100.00;68379.81;5045198;28;20041;-78
2022/09/22 05:40:16;;;;;;;15.93;12.93;;;;;;;-142.57;100.00;68379.81;5051684;28;20391;-77
2022/09/22 05:42:46;;;;;;;15.85;12.50;;;;;;;-142.57;100.00;68379.81;5051204;28;20040;-78
2022/09/22 05:45:12;;;;;;;18.67;11.80;;;;;;;-142.57;100.00;68379.81;5034950;28;20445;-77
2022/09/22 05:47:43;;;;;;;16.63;11.52;;;;;;;-142.57;100.00;68379.81;5043516;28;20128;-78
2022/09/22 05:50:10;;;;;;;20.75;12.55;;;;;;;-142.57;100.00;68379.81;5035867;28;20033;-77
2022/09/22 05:52:36;;;;;;;18.73;13.02;;;;;;;-142.57;100.00;68379.81;5051539;28;20031;-77
2022/09/22 05:55:02;;;;;;;14.32;11.15;;;;;;;-142.57;100.00;68379.81;5051411;28;20025;-77
2022/09/22 05:57:27;;;;;;;18.33;12.90;;;;;;;-142.57;100.00;68379.81;5050766;28;20025;-77
2022/09/22 05:59:54;;;;;;;14.35;12.05;;;;;;;-142.57;100.00;68379.81;5051827;28;20037;-77
2022/09/22 06:02:19;;;;;;;18.38;11.98;;;;;;;-142.57;100.00;68379.81;5036760;28;20473;-79
2022/09/22 06:04:45;;;;;;;17.00;12.68;;;;;;;-142.57;100.00;68379.81;5050753;28;20135;-79
2022/09/22 06:07:10;;;;;;;16.17;12.00;;;;;;;-142.57;100.00;68379.81;5052089;28;20067;-77
2022/09/22 06:09:36;;;;;;;15.00;12.25;;;;;;;-142.57;100.00;68379.81;5050734;28;20032;-76
2022/09/22 06:12:01;;;;;;;17.15;13.45;;;;;;;-142.57;100.00;68379.81;5051743;28;20025;-76
2022/09/22 06:14:26;;;;;;;20.45;13.85;;;;;;;-142.57;100.00;68379.81;5051758;28;20021;-77
2022/09/22 06:16:52;;;;;;;16.65;13.57;;;;;;;-142.57;100.00;68379.81;5064991;28;20021;-77
2022/09/22 06:19:18;;;;;;;16.27;13.25;;;;;;;-142.57;100.00;68379.81;5070626;28;20089;-77
2022/09/22 06:21:44;;;;;;;20.27;15.00;;;;;;;-142.57;100.00;68379.81;5071769;28;20028;-77
2022/09/22 06:24:10;;;;;;;18.10;15.13;;;;;;;-142.57;100.00;68379.81;5068680;28;20430;-76
2022/09/22 06:26:35;;;;;;;20.05;15.68;;;;;;;-142.57;100.00;68379.81;5070665;28;20016;-76
2022/09/22 06:29:00;;;;;;;18.38;15.13;;;;;;;-142.57;100.00;68379.81;5065436;28;20045;-76
2022/09/22 06:31:26;;;;;;;20.52;14.75;;;;;;;-142.57;100.00;68379.81;5054434;28;20052;-77
2022/09/22 06:33:53;;;;;;;25.33;16.67;;;;;;;-142.57;100.00;68379.81;5049143;28;20033;-77
2022/09/22 06:36:26;;;;;;;20.33;15.20;;;;;;;-142.57;100.00;68379.81;5054838;28;20062;-73
2022/09/22 06:38:53;;;;;;;24.27;14.98;;;;;;;-142.57;100.00;68379.81;5060082;28;20032;-77
2022/09/22 06:41:18;;;;;;;21.90;15.15;;;;;;;-142.57;100.00;68379.81;5085415;28;20032;-77
2022/09/22 06:43:46;;;;;;;18.20;14.32;;;;;;;-142.57;100.00;68379.81;5031304;28;20020;-76
2022/09/22 06:46:12;;;;;;;20.23;15.02;;;;;;;-142.57;100.00;68379.81;5052323;28;20021;-76
2022/09/22 06:48:38;;;;;;;16.70;14.82;;;;;;;-142.57;100.00;68379.81;5053825;28;20468;-77
2022/09/22 06:51:03;;;;;;;20.42;14.98;;;;;;;-142.57;100.00;68379.81;5051127;28;20120;-77
2022/09/22 06:53:28;;;;;;;24.90;15.50;;;;;;;-142.57;100.00;68379.81;5047242;28;20036;-76
2022/09/22 06:55:54;;;;;;;18.20;14.88;;;;;;;-142.57;100.00;68379.81;5034493;28;20032;-77
2022/09/22 06:58:20;;;;;;;27.02;13.75;;;;;;;-142.57;100.00;68379.81;5079704;28;20501;-76
2022/09/22 07:00:46;;;;;;;17.83;14.10;;;;;;;-142.57;100.00;68379.81;5047875;28;20035;-77
2022/09/22 07:03:21;;;;;;;19.52;13.10;;;;;;;-142.57;100.00;68379.81;5043455;28;20032;-78
2022/09/22 07:06:02;;;;;;;20.20;14.18;;;;;;;-142.57;100.00;68379.81;5050601;28;20024;-79
2022/09/22 07:08:29;;;;;;;20.35;13.85;;;;;;;-142.57;100.00;68379.81;5053715;28;20032;-77
2022/09/22 07:11:01;;;;;;;18.77;14.15;;;;;;;-142.57;100.00;68379.81;5057247;28;20035;-79
2022/09/22 07:13:30;;;;;;;22.45;13.43;;;;;;;-142.57;100.00;68379.81;5042111;28;20384;-78
2022/09/22 07:16:03;;;;;;;16.40;12.93;;;;;;;-142.57;100.00;68379.81;5040928;28;20029;-78
2022/09/22 07:18:29;;;;;;;14.02;12.52;;;;;;;-142.57;100.00;68379.81;5049458;28;20487;-78
2022/09/22 07:21:05;;;;;;;16.20;12.63;;;;;;;-142.57;100.00;68379.81;5054550;28;20060;-78
2022/09/22 07:23:34;;;;;;;16.30;11.00;;;;;;;-142.57;100.00;68379.81;5033835;28;20176;-78
2022/09/22 07:26:02;;;;;;;13.77;10.43;;;;;;;-142.57;100.00;68379.81;5066631;28;20024;-78
2022/09/22 07:28:28;;;;;;;17.15;10.50;;;;;;;-142.57;100.00;68379.81;5052817;28;20028;-78
2022/09/22 07:31:07;;;;;;;13.00;8.80;;;;;;;-142.57;100.00;68379.81;5013023;28;20807;-78
2022/09/22 07:33:34;;;;;;;12.85;10.35;;;;;;;-142.57;100.00;68379.81;5004774;28;20028;-79
2022/09/22 07:36:08;;;;;;;11.45;9.40;;;;;;;-142.57;100.00;68379.81;5015974;28;20956;-78
2022/09/22 07:38:35;;;;;;;17.40;9.38;;;;;;;-142.57;100.00;68379.81;5027466;28;20033;-79
2022/09/22 07:41:10;;;;;;;11.77;8.88;;;;;;;-142.57;100.00;68379.81;5052710;28;20442;-78
2022/09/22 07:43:36;;;;;;;10.90;7.57;;;;;;;-142.57;100.00;68379.81;5004972;28;20384;-78
2022/09/22 07:46:02;;;;;;;12.57;8.38;;;;;;;-142.57;100.00;68379.81;5041519;28;20024;-76
2022/09/22 07:48:46;;;;;;;11.55;7.05;;;;;;;-142.57;100.00;68379.81;5054331;28;20039;-77
2022/09/22 07:51:23;;;;;;;11.82;6.03;;;;;;;-142.57;100.00;68379.81;5039926;28;20078;-76
2022/09/22 07:54:06;;;;;;;11.13;5.35;;;;;;;-142.57;100.00;68379.81;5052414;28;20100;-75
2022/09/22 07:56:41;;;;;;;9.93;4.85;;;;;;;-142.57;100.00;68379.81;5059348;28;20098;-76
2022/09/22 07:59:11;;;;;;;6.10;3.85;;;;;;;-142.57;100.00;68379.81;5055112;28;20490;-77
2022/09/22 08:01:42;;;;;;;7.38;3.55;;;;;;;-142.57;100.00;68379.81;5052726;28;20032;-78
2022/09/22 08:04:11;;;;;;;4.97;3.13;;;;;;;-142.57;100.00;68379.81;5022676;28;20923;-78
2022/09/22 08:06:36;;;;;;;3.53;2.53;;;;;;;-142.57;100.00;68379.81;5050803;28;20379;-77
2022/09/22 08:09:02;;;;;;;5.03;2.80;;;;;;;-142.57;100.00;68379.81;5016671;28;20025;-77
2022/09/22 08:11:28;;;;;;;3.70;2.45;;;;;;;-142.57;100.00;68379.81;5054079;28;20535;-76
2022/09/22 08:14:04;;;;;;;11.15;2.58;;;;;;;-142.57;100.00;68379.81;5046768;28;20111;-78
2022/09/22 08:16:32;;;;;;;4.10;2.30;;;;;;;-142.57;100.00;68379.81;5054204;28;20040;-78
2022/09/22 08:19:01;;;;;;;4.80;2.35;;;;;;;-142.57;100.00;68379.81;5052533;28;20464;-78
2022/09/22 08:21:34;;;;;;;3.70;2.35;;;;;;;-142.57;100.00;68379.81;5053569;28;20024;-77
2022/09/22 08:24:03;;;;;;;3.97;2.10;;;;;;;-142.57;100.00;68379.81;5052480;28;20051;-78
2022/09/22 08:26:30;;;;;;;5.15;1.77;;;;;;;-142.57;100.00;68379.81;5052325;28;20112;-77
2022/09/22 08:28:56;;;;;;;6.88;2.35;;;;;;;-142.57;100.00;68379.81;5051443;28;20048;-77
2022/09/22 08:31:23;;;;;;;5.57;2.47;;;;;;;-142.57;100.00;68379.81;5037294;28;20127;-78
2022/09/22 08:33:50;;;;;;;5.22;1.75;;;;;;;-142.57;100.00;68379.81;5043800;28;20107;-78
2022/09/22 08:36:16;;;;;;;3.40;1.75;;;;;;;-142.57;100.00;68379.81;5031394;28;20387;-78
2022/09/22 08:38:42;;;;;;;4.15;1.73;;;;;;;-142.57;100.00;68379.81;5051540;28;20033;-78
2022/09/22 08:41:17;;;;;;;2.85;1.63;;;;;;;-142.57;100.00;68379.81;5051955;28;20033;-78
2022/09/22 08:43:59;;;;;;;3.45;1.75;;;;;;;-142.57;100.00;68379.81;5052146;28;20041;-79
2022/09/22 08:46:34;;;;;;;3.50;1.42;;;;;;;-142.57;100.00;68379.81;5054497;28;20083;-79
2022/09/22 08:52:39;;;;;;;5.72;1.20;;;;;;;-142.57;100.00;68379.81;5069705;28;20502;-77
2022/09/22 08:55:13;;;;;;;2.53;1.02;;;;;;;-142.57;100.00;68379.81;5069049;28;20035;-79
2022/09/22 08:57:55;;;;;;;5.57;1.25;;;;;;;-142.57;100.00;68379.81;5048300;28;20024;-77
2022/09/22 09:00:22;;;;;;;2.42;1.20;;;;;;;-142.57;100.00;68379.81;5052195;28;20108;-80
2022/09/22 09:03:25;;;;;;;2.92;1.42;;;;;;;-142.57;100.00;68379.81;5048303;28;20024;-81
2022/09/22 09:06:28;;;;;;;5.93;1.42;;;;;;;-142.57;100.00;68379.81;5057298;28;20074;-82
2022/09/22 09:09:00;;;;;;;2.60;1.58;;;;;;;-142.57;100.00;68379.81;5066452;28;20124;-81
2022/09/22 09:12:01;;;;;;;5.38;2.05;;;;;;;-142.57;100.00;68379.81;5054681;28;20701;-81
2022/09/22 09:14:51;;;;;;;4.38;1.80;;;;;;;-142.57;100.00;68379.81;5030696;28;20037;-80
2022/09/22 09:17:30;;;;;;;2.83;1.40;;;;;;;-142.57;100.00;68379.81;5062999;28;20021;-81
2022/09/22 09:20:11;;;;;;;2.15;1.23;;;;;;;-142.57;100.00;68379.81;5099549;28;20020;-77
2022/09/22 09:22:40;;;;;;;2.97;1.45;;;;;;;-142.57;100.00;68379.81;5069910;28;20035;-79
2022/09/22 09:25:20;;;;;;;3.13;1.50;;;;;;;-142.57;100.00;68379.81;5046352;28;20092;-79
2022/09/22 09:27:53;;;;;;;6.10;1.65;;;;;;;-142.57;100.00;68379.81;5059585;28;20033;-79
2022/09/22 09:30:20;;;;;;;3.33;1.00;;;;;;;-142.57;100.00;68379.81;5052547;28;20021;-80
2022/09/22 09:32:55;;;;;;;3.47;1.33;;;;;;;-142.57;100.00;68379.81;5032422;28;20017;-73
2022/09/22 09:35:25;;;;;;;5.68;1.40;;;;;;;-142.57;100.00;68379.81;5057101;28;20025;-70
2022/09/22 09:37:57;;;;;;;2.78;1.02;;;;;;;-142.57;100.00;68379.81;5047112;28;20052;-80
2022/09/22 09:40:23;;;;;;;2.22;0.93;;;;;;;-142.57;100.00;68379.81;5053953;28;20421;-76
2022/09/22 09:42:59;;;;;;;2.65;1.33;;;;;;;-142.57;100.00;68379.81;5039369;28;20112;-81
2022/09/22 09:45:32;;;;;;;2.75;1.13;;;;;;;-142.57;100.00;68379.81;5049843;28;20025;-78
2022/09/22 09:48:08;;;;;;;3.72;1.10;;;;;;;-142.57;100.00;68379.81;5028328;28;20052;-78
2022/09/22 09:50:34;;;;;;;3.35;1.20;;;;;;;-142.57;100.00;68379.81;5041516;28;20028;-76
2022/09/22 09:53:00;;;;;;;2.03;1.10;;;;;;;-142.57;100.00;68379.81;5052162;28;20052;-78
2022/09/22 09:55:26;;;;;;;3.22;1.35;;;;;;;-142.57;100.00;68379.81;5050829;28;20048;-77
2022/09/22 09:58:09;;;;;;;2.20;1.00;;;;;;;-142.57;100.00;68379.81;5044164;28;20112;-78
2022/09/22 10:00:52;;;;;;;7.22;1.30;;;;;;;-142.57;100.00;68379.81;5068294;28;20051;-78
2022/09/22 10:03:29;;;;;;;2.15;0.85;;;;;;;-142.57;100.00;68379.81;5044428;28;20025;-79
2022/09/22 10:06:05;;;;;;;3.20;1.08;;;;;;;-142.57;100.00;68379.81;5048970;28;20043;-79
2022/09/22 10:08:35;;;;;;;3.78;1.23;;;;;;;-142.57;100.00;68379.81;5051186;28;20029;-78
2022/09/22 10:11:01;;;;;;;2.58;1.27;;;;;;;-142.57;100.00;68379.81;5049612;28;20059;-79
2022/09/22 10:13:37;;;;;;;2.90;1.25;;;;;;;-142.57;100.00;68379.81;5045259;28;20040;-79
2022/09/22 10:16:27;;;;;;;8.60;1.45;;;;;;;-142.57;100.00;68379.81;5059077;28;20091;-79
2022/09/22 10:19:12;;;;;;;2.63;1.15;;;;;;;-142.57;100.00;68379.81;5049434;28;20049;-79
2022/09/22 10:21:37;;;;;;;3.47;1.40;;;;;;;-142.57;100.00;68379.81;5051583;28;20027;-78
2022/09/22 10:24:21;;;;;;;5.95;1.17;;;;;;;-142.57;100.00;68379.81;5051620;28;20103;-78
2022/09/22 10:26:56;;;;;;;2.17;0.93;;;;;;;-142.57;100.00;68379.81;5044806;28;20021;-79
2022/09/22 10:29:22;;;;;;;3.30;1.15;;;;;;;-142.57;100.00;68379.81;5044531;28;20927;-78
2022/09/22 10:32:02;;;;;;;5.03;1.05;;;;;;;-142.57;100.00;68379.81;5036756;28;20046;-78
2022/09/22 10:34:39;;;;;;;2.72;1.23;;;;;;;-142.57;100.00;68379.81;5030825;28;20404;-78
2022/09/22 10:37:10;;;;;;;1.83;0.93;;;;;;;-142.57;100.00;68379.81;5064622;28;20111;-78
2022/09/22 10:39:48;;;;;;;3.65;1.05;;;;;;;-142.57;100.00;68379.81;5049888;28;20036;-79
2022/09/22 10:42:34;;;;;;;5.53;0.98;;;;;;;-142.57;100.00;68379.81;5049927;28;20461;-79
2022/09/22 10:45:03;;;;;;;3.47;1.13;;;;;;;-142.57;100.00;68379.81;5042308;28;20029;-79
2022/09/22 10:47:42;;;;;;;11.57;1.73;;;;;;;-142.57;100.00;68379.81;5048359;28;20480;-78
2022/09/22 10:50:27;;;;;;;1.50;0.68;;;;;;;-142.57;100.00;68379.81;5052164;28;20035;-79
2022/09/22 10:52:55;;;;;;;2.45;0.90;;;;;;;-142.57;100.00;68379.81;5057204;28;20030;-77
2022/09/22 10:55:26;;;;;;;3.47;1.10;;;;;;;-142.57;100.00;68379.81;5058748;28;20092;-79
2022/09/22 10:58:07;;;;;;;1.70;0.80;;;;;;;-142.57;100.00;68379.81;5054914;28;20033;-79
2022/09/22 11:00:34;;;;;;;4.30;1.50;;;;;;;-142.57;100.00;68379.81;5046652;28;20483;-79
2022/09/22 11:03:27;;;;;;;2.08;0.70;;;;;;;-142.57;100.00;68379.81;5052937;28;20029;-80
2022/09/22 11:12:16;;;;;;;2.00;0.93;;;;;;;-142.57;100.00;68379.81;5069206;28;20435;-78
2022/09/22 11:14:41;;;;;;;5.10;1.13;;;;;;;-142.57;100.00;68379.81;5050122;28;20025;-78
2022/09/22 11:17:43;;;;;;;3.67;1.20;;;;;;;-142.57;100.00;68379.81;5054300;28;20047;-78
2022/09/22 11:20:31;;;;;;;2.90;0.85;;;;;;;-142.57;100.00;68379.81;5055727;28;20056;-77
2022/09/22 11:23:44;;;;;;;1.92;0.82;;;;;;;-142.57;100.00;68379.81;5041783;28;20029;-78